UAL1887 PHOG-KSFO
Flight info
| Callsign | UAL1887 |
|---|---|
| Flight time | N/A |
| Altitude | 37000 |
| Route | CLUTS R465 CINNY PIRAT3 |
| Aircraft | B38M/M-SDE1FGHILORVWXY/HB1 |
Departure
| Time | 2026-04-21 22:07 |
|---|---|
| Airport | Kahului International Airport (PHOG) |
Arrival
| Time | N/A |
|---|---|
| Airport | San Francisco International Airport (KSFO) |
| Time | Latitude | Longitude | Altitude | Speed | Heading |
|---|---|---|---|---|---|
| 2026-04-21 21:46 | 20.89403 | -156.43599 | 47 ft | 0 kts | 305° |
| 2026-04-21 21:56 | 20.89402 | -156.43597 | 47 ft | 2 kts | 305° |
| 2026-04-21 21:57 | 20.89386 | -156.43575 | 47 ft | 4 kts | 305° |
| 2026-04-21 21:57 | 20.89376 | -156.43555 | 45 ft | 4 kts | 295° |
| 2026-04-21 21:57 | 20.89367 | -156.43529 | 47 ft | 4 kts | 281° |
| 2026-04-21 21:57 | 20.89364 | -156.43510 | 47 ft | 0 kts | 277° |
| 2026-04-21 21:59 | 20.89364 | -156.43511 | 47 ft | 0 kts | 277° |
| 2026-04-21 22:01 | 20.89364 | -156.43510 | 47 ft | 0 kts | 277° |
| 2026-04-21 22:02 | 20.89364 | -156.43511 | 47 ft | 0 kts | 277° |
| 2026-04-21 22:02 | 20.89364 | -156.43516 | 47 ft | 2 kts | 269° |
| 2026-04-21 22:03 | 20.89354 | -156.43533 | 44 ft | 4 kts | 218° |
| 2026-04-21 22:03 | 20.89324 | -156.43538 | 45 ft | 5 kts | 177° |
| 2026-04-21 22:03 | 20.89283 | -156.43536 | 47 ft | 6 kts | 177° |
| 2026-04-21 22:03 | 20.89243 | -156.43549 | 47 ft | 7 kts | 213° |
| 2026-04-21 22:04 | 20.89199 | -156.43581 | 46 ft | 8 kts | 214° |
| 2026-04-21 22:04 | 20.89148 | -156.43619 | 47 ft | 10 kts | 215° |
| 2026-04-21 22:04 | 20.89094 | -156.43660 | 47 ft | 9 kts | 215° |
| 2026-04-21 22:04 | 20.89037 | -156.43702 | 47 ft | 11 kts | 206° |
| 2026-04-21 22:05 | 20.88992 | -156.43704 | 44 ft | 2 kts | 158° |
| 2026-04-21 22:05 | 20.88975 | -156.43691 | 47 ft | 4 kts | 136° |
| 2026-04-21 22:05 | 20.88955 | -156.43659 | 47 ft | 6 kts | 122° |
| 2026-04-21 22:05 | 20.88945 | -156.43616 | 47 ft | 6 kts | 56° |
| 2026-04-21 22:06 | 20.88978 | -156.43588 | 46 ft | 7 kts | 36° |
| 2026-04-21 22:06 | 20.89163 | -156.43451 | 46 ft | 70 kts | 34° |
| 2026-04-21 22:06 | 20.89765 | -156.43002 | 45 ft | 139 kts | 35° |
| 2026-04-21 22:06 | 20.90698 | -156.42312 | 287 ft | 174 kts | 32° |
| 2026-04-21 22:07 | 20.91734 | -156.41586 | 1133 ft | 176 kts | 33° |
| 2026-04-21 22:07 | 20.92729 | -156.40853 | 1956 ft | 182 kts | 36° |
| 2026-04-21 22:07 | 20.93795 | -156.39961 | 2276 ft | 208 kts | 37° |
| 2026-04-21 22:07 | 20.94994 | -156.38954 | 2690 ft | 229 kts | 37° |
| 2026-04-21 22:08 | 20.96306 | -156.37859 | 3196 ft | 249 kts | 37° |
| 2026-04-21 22:08 | 20.97720 | -156.36680 | 3725 ft | 266 kts | 37° |
| 2026-04-21 22:08 | 20.99191 | -156.35458 | 4593 ft | 267 kts | 38° |
| 2026-04-21 22:08 | 21.00681 | -156.34219 | 5430 ft | 273 kts | 38° |
| 2026-04-21 22:09 | 21.02176 | -156.32979 | 6262 ft | 276 kts | 38° |
| 2026-04-21 22:09 | 21.03706 | -156.31709 | 7039 ft | 280 kts | 37° |
| 2026-04-21 22:09 | 21.05271 | -156.30409 | 7784 ft | 286 kts | 37° |
| 2026-04-21 22:09 | 21.06838 | -156.29107 | 8530 ft | 290 kts | 37° |
| 2026-04-21 22:10 | 21.08443 | -156.27774 | 9296 ft | 294 kts | 37° |
| 2026-04-21 22:10 | 21.10073 | -156.26419 | 10038 ft | 299 kts | 36° |
| 2026-04-21 22:10 | 21.11757 | -156.25019 | 10490 ft | 314 kts | 36° |
| 2026-04-21 22:10 | 21.13515 | -156.23556 | 10750 ft | 334 kts | 36° |
| 2026-04-21 22:11 | 21.15406 | -156.21983 | 11001 ft | 353 kts | 36° |
| 2026-04-21 22:11 | 21.17388 | -156.20333 | 11373 ft | 366 kts | 36° |
| 2026-04-21 22:11 | 21.19407 | -156.18652 | 12067 ft | 367 kts | 36° |
| 2026-04-21 22:11 | 21.21442 | -156.16957 | 12717 ft | 371 kts | 36° |
| 2026-04-21 22:12 | 21.23464 | -156.15272 | 13371 ft | 374 kts | 36° |
| 2026-04-21 22:12 | 21.25529 | -156.13552 | 14006 ft | 377 kts | 35° |
| 2026-04-21 22:12 | 21.27614 | -156.11813 | 14588 ft | 380 kts | 35° |
| 2026-04-21 22:12 | 21.29710 | -156.10064 | 15196 ft | 382 kts | 35° |
| 2026-04-21 22:13 | 21.31818 | -156.08305 | 15784 ft | 384 kts | 35° |
| 2026-04-21 22:13 | 21.33913 | -156.06556 | 16361 ft | 387 kts | 35° |
| 2026-04-21 22:13 | 21.36046 | -156.04775 | 16919 ft | 389 kts | 34° |
| 2026-04-21 22:13 | 21.38191 | -156.02983 | 17466 ft | 391 kts | 34° |
| 2026-04-21 22:14 | 21.40348 | -156.01181 | 18005 ft | 394 kts | 34° |
| 2026-04-21 22:14 | 21.42527 | -155.99359 | 18499 ft | 396 kts | 34° |
| 2026-04-21 22:14 | 21.44684 | -155.97554 | 18943 ft | 399 kts | 34° |
| 2026-04-21 22:14 | 21.46887 | -155.95711 | 19379 ft | 401 kts | 34° |
| 2026-04-21 22:15 | 21.49096 | -155.93862 | 19811 ft | 403 kts | 34° |
| 2026-04-21 22:15 | 21.51319 | -155.92000 | 20243 ft | 406 kts | 34° |
| 2026-04-21 22:15 | 21.53552 | -155.90130 | 20685 ft | 407 kts | 34° |
| 2026-04-21 22:15 | 21.55794 | -155.88252 | 21099 ft | 410 kts | 34° |
| 2026-04-21 22:16 | 21.58049 | -155.86361 | 21514 ft | 412 kts | 35° |
| 2026-04-21 22:16 | 21.60290 | -155.84481 | 21910 ft | 415 kts | 35° |
| 2026-04-21 22:16 | 21.62571 | -155.82568 | 22307 ft | 418 kts | 35° |
| 2026-04-21 22:16 | 21.64875 | -155.80634 | 22703 ft | 420 kts | 35° |
| 2026-04-21 22:17 | 21.67192 | -155.78688 | 23094 ft | 422 kts | 35° |
| 2026-04-21 22:17 | 21.69522 | -155.76731 | 23481 ft | 425 kts | 35° |
| 2026-04-21 22:17 | 21.71830 | -155.74791 | 23811 ft | 427 kts | 35° |
| 2026-04-21 22:17 | 21.74182 | -155.72814 | 24134 ft | 429 kts | 35° |
| 2026-04-21 22:18 | 21.76541 | -155.70830 | 24466 ft | 430 kts | 35° |
| 2026-04-21 22:18 | 21.78908 | -155.68838 | 24796 ft | 432 kts | 34° |
| 2026-04-21 22:18 | 21.81289 | -155.66834 | 25123 ft | 434 kts | 34° |
| 2026-04-21 22:18 | 21.83641 | -155.64852 | 25447 ft | 435 kts | 34° |
| 2026-04-21 22:19 | 21.86048 | -155.62825 | 25778 ft | 437 kts | 34° |
| 2026-04-21 22:19 | 21.88446 | -155.60803 | 26101 ft | 439 kts | 34° |
| 2026-04-21 22:19 | 21.90855 | -155.58772 | 26450 ft | 440 kts | 34° |
| 2026-04-21 22:19 | 21.93253 | -155.56749 | 26780 ft | 441 kts | 34° |
| 2026-04-21 22:20 | 21.95675 | -155.54703 | 27082 ft | 443 kts | 34° |
| 2026-04-21 22:20 | 21.98112 | -155.52646 | 27384 ft | 445 kts | 34° |
| 2026-04-21 22:20 | 22.00528 | -155.50605 | 27687 ft | 446 kts | 34° |
| 2026-04-21 22:20 | 22.02978 | -155.48533 | 27983 ft | 448 kts | 34° |
| 2026-04-21 22:21 | 22.05440 | -155.46452 | 28275 ft | 450 kts | 33° |
| 2026-04-21 22:21 | 22.07907 | -155.44365 | 28565 ft | 451 kts | 33° |
| 2026-04-21 22:21 | 22.10393 | -155.42261 | 28852 ft | 453 kts | 33° |
| 2026-04-21 22:21 | 22.12876 | -155.40158 | 29128 ft | 455 kts | 33° |
| 2026-04-21 22:22 | 22.15372 | -155.38044 | 29393 ft | 456 kts | 33° |
| 2026-04-21 22:22 | 22.17844 | -155.35949 | 29693 ft | 457 kts | 33° |
| 2026-04-21 22:22 | 22.20348 | -155.33825 | 30077 ft | 456 kts | 33° |
| 2026-04-21 22:22 | 22.24453 | -155.30337 | 30641 ft | 454 kts | 33° |
| 2026-04-21 22:23 | 22.29422 | -155.26121 | 31395 ft | 449 kts | 33° |
| 2026-04-21 22:23 | 22.34254 | -155.21999 | 32137 ft | 446 kts | 33° |
| 2026-04-21 22:23 | 22.39131 | -155.17872 | 32872 ft | 442 kts | 34° |
| 2026-04-21 22:23 | 22.43955 | -155.13752 | 33575 ft | 439 kts | 34° |
| 2026-04-21 22:24 | 22.48746 | -155.09659 | 34253 ft | 436 kts | 33° |
| 2026-04-21 22:24 | 22.53451 | -155.05668 | 34817 ft | 433 kts | 34° |
| 2026-04-21 22:24 | 22.58168 | -155.01649 | 35356 ft | 430 kts | 34° |
| 2026-04-21 22:24 | 22.62851 | -154.97626 | 35870 ft | 427 kts | 33° |
| 2026-04-21 22:25 | 22.67499 | -154.93648 | 36489 ft | 421 kts | 34° |
| 2026-04-21 22:25 | 22.72051 | -154.89785 | 36872 ft | 419 kts | 34° |
| 2026-04-21 22:25 | 22.76596 | -154.85854 | 36984 ft | 415 kts | 34° |
| 2026-04-21 22:26 | 22.84136 | -154.79406 | 37048 ft | 414 kts | 33° |
| 2026-04-21 22:26 | 22.93168 | -154.71633 | 37076 ft | 414 kts | 34° |
| 2026-04-21 22:27 | 23.01740 | -154.63254 | 37006 ft | 426 kts | 56° |
| 2026-04-21 22:27 | 23.04838 | -154.57440 | 37050 ft | 415 kts | 43° |